Data Viewer
| City | State | Eastern Time | Source | Temp | DewPt | RH | BP | 5 Min Precip | Wind Speed | Wind Dir | 5 Min Wind Max | 5 Min Wind Max Dir |
|---|---|---|---|---|---|---|---|---|---|---|---|---|
| New York LGA | NY | 2026-05-02 22:35 | ASOS | 55 | 26 | 33 | 29.85 | 9 | N | |||
| New York LGA | NY | 2026-05-03 12:00 | ASOS | 54 | 23 | 30 | 29.87 | 15 | WNW | |||
| New York LGA | NY | 2026-05-03 11:05 | ASOS | 52 | 25 | 35 | 29.87 | 20 | WNW | |||
| New York LGA | NY | 2026-05-03 11:10 | ASOS | 52 | 25 | 35 | 29.87 | 23 | NW | |||
| New York LGA | NY | 2026-05-03 11:15 | ASOS | 52 | 25 | 35 | 29.87 | 21 | NW | |||
| New York LGA | NY | 2026-05-03 11:20 | ASOS | 52 | 25 | 35 | 29.87 | 18 | NW | |||
| New York LGA | NY | 2026-05-03 11:25 | ASOS | 52 | 23 | 32 | 29.87 | 20 | NW | |||
| New York LGA | NY | 2026-05-03 11:30 | ASOS | 52 | 23 | 32 | 29.87 | 21 | NW | |||
| New York LGA | NY | 2026-05-03 11:35 | ASOS | 52 | 25 | 35 | 29.87 | 23 | NW | |||
| New York LGA | NY | 2026-05-03 11:40 | ASOS | 52 | 25 | 35 | 29.87 | 18 | NW | |||
| New York LGA | NY | 2026-05-03 11:45 | ASOS | 52 | 21 | 30 | 29.87 | 18 | NW | |||
| New York LGA | NY | 2026-05-03 11:50 | ASOS | 54 | 21 | 28 | 29.87 | 14 | NW | |||
| New York LGA | NY | 2026-05-03 11:51 | ASOS | 53 | 22 | 29 | 29.87 | 13 | WNW | |||
| New York LGA | NY | 2026-05-03 11:55 | ASOS | 54 | 23 | 30 | 29.87 | 17 | WNW | |||
| New York LGA | NY | 2026-05-03 12:10 | ASOS | 54 | 23 | 30 | 29.86 | 16 | NW | |||
| New York LGA | NY | 2026-05-03 10:51 | ASOS | 52 | 27 | 38 | 29.87 | 18 | NW | |||
| New York LGA | NY | 2026-05-03 12:15 | ASOS | 54 | 25 | 32 | 29.86 | 21 | WNW | |||
| New York LGA | NY | 2026-05-03 12:20 | ASOS | 54 | 25 | 32 | 29.87 | 21 | WNW | |||
| New York LGA | NY | 2026-05-03 12:25 | ASOS | 54 | 23 | 30 | 29.87 | 22 | WNW | |||
| New York LGA | NY | 2026-05-03 12:30 | ASOS | 54 | 25 | 32 | 29.86 | 18 | WNW | |||
| New York LGA | NY | 2026-05-03 12:35 | ASOS | 54 | 21 | 28 | 29.86 | 20 | W | |||
| New York LGA | NY | 2026-05-03 12:45 | ASOS | 54 | 23 | 30 | 29.86 | 23 | W | |||
| New York LGA | NY | 2026-05-03 12:50 | ASOS | 54 | 25 | 32 | 29.86 | 21 | WNW | |||
| New York LGA | NY | 2026-05-03 12:51 | ASOS | 53 | 25 | 33 | 29.86 | 18 | WNW | |||
| New York LGA | NY | 2026-05-03 13:00 | ASOS | 54 | 25 | 32 | 29.86 | 16 | WNW | |||
| New York LGA | NY | 2026-05-03 13:05 | ASOS | 54 | 25 | 32 | 29.86 | 17 | W | |||
| New York LGA | NY | 2026-05-03 13:10 | ASOS | 54 | 25 | 32 | 29.86 | 18 | NW | |||
| New York LGA | NY | 2026-05-03 13:20 | ASOS | 54 | 25 | 32 | 29.86 | 21 | NW | |||
| New York LGA | NY | 2026-05-03 13:25 | ASOS | 54 | 25 | 32 | 29.86 | 23 | NNW | |||
| New York LGA | NY | 2026-05-03 11:00 | ASOS | 52 | 25 | 35 | 29.87 | 17 | NW | |||
| New York LGA | NY | 2026-05-03 10:50 | ASOS | 52 | 26 | 37 | 29.87 | 18 | NW | |||
| New York LGA | NY | 2026-05-03 13:40 | ASOS | 54 | 26 | 35 | 29.86 | 21 | WNW | |||
| New York LGA | NY | 2026-05-03 09:35 | ASOS | 48 | 28 | 46 | 29.88 | 13 | NW | |||
| New York LGA | NY | 2026-05-03 08:35 | ASOS | 46 | 28 | 49 | 29.88 | 15 | WNW | |||
| New York LGA | NY | 2026-05-03 08:40 | ASOS | 46 | 30 | 53 | 29.88 | 16 | NW | |||
| New York LGA | NY | 2026-05-03 08:45 | ASOS | 46 | 30 | 53 | 29.88 | 14 | NW | |||
| New York LGA | NY | 2026-05-03 08:50 | ASOS | 48 | 28 | 46 | 29.88 | 14 | NW | |||
| New York LGA | NY | 2026-05-03 08:51 | ASOS | 48 | 29 | 47 | 29.88 | 16 | NW | |||
| New York LGA | NY | 2026-05-03 08:55 | ASOS | 48 | 30 | 50 | 29.88 | 18 | WNW | |||
| New York LGA | NY | 2026-05-03 09:05 | ASOS | 48 | 30 | 50 | 29.88 | 18 | NW | |||
| New York LGA | NY | 2026-05-03 09:10 | ASOS | 48 | 28 | 46 | 29.88 | 17 | NW | |||
| New York LGA | NY | 2026-05-03 09:15 | ASOS | 48 | 28 | 46 | 29.88 | 16 | NW | |||
| New York LGA | NY | 2026-05-03 09:20 | ASOS | 48 | 28 | 46 | 29.88 | 15 | NW | |||
| New York LGA | NY | 2026-05-03 09:25 | ASOS | 48 | 28 | 46 | 29.88 | 16 | NW | |||
| New York LGA | NY | 2026-05-03 09:30 | ASOS | 48 | 28 | 46 | 29.88 | 20 | WNW | |||
| New York LGA | NY | 2026-05-03 09:40 | ASOS | 50 | 30 | 46 | 29.87 | 15 | WNW | |||
| New York LGA | NY | 2026-05-03 10:45 | ASOS | 52 | 26 | 37 | 29.87 | 17 | NNW | |||
| New York LGA | NY | 2026-05-03 09:45 | ASOS | 50 | 28 | 43 | 29.87 | 13 | NW | |||
| New York LGA | NY | 2026-05-03 09:50 | ASOS | 50 | 28 | 43 | 29.87 | 14 | NW | |||
| New York LGA | NY | 2026-05-03 09:51 | ASOS | 50 | 29 | 44 | 29.87 | 15 | NW | |||
| New York LGA | NY | 2026-05-03 09:55 | ASOS | 50 | 28 | 43 | 29.87 | 18 | NW | |||
| New York LGA | NY | 2026-05-03 10:00 | ASOS | 50 | 28 | 43 | 29.88 | 16 | NW | |||
| New York LGA | NY | 2026-05-03 10:05 | ASOS | 50 | 28 | 43 | 29.87 | 22 | NW | |||
| New York LGA | NY | 2026-05-03 10:10 | ASOS | 52 | 26 | 37 | 29.87 | 17 | NW | |||
| New York LGA | NY | 2026-05-03 10:15 | ASOS | 52 | 26 | 37 | 29.87 | 18 | NNW | |||
| New York LGA | NY | 2026-05-03 10:20 | ASOS | 52 | 26 | 37 | 29.87 | 17 | NNW | |||
| New York LGA | NY | 2026-05-03 10:25 | ASOS | 52 | 26 | 37 | 29.87 | 14 | NNW | |||
| New York LGA | NY | 2026-05-03 10:30 | ASOS | 52 | 26 | 37 | 29.87 | 15 | NW | |||
| New York LGA | NY | 2026-05-03 10:35 | ASOS | 52 | 26 | 37 | 29.87 | 18 | NNW | |||
| New York LGA | NY | 2026-05-03 10:40 | ASOS | 52 | 26 | 37 | 29.88 | 16 | NNW | |||
| New York LGA | NY | 2026-05-03 13:35 | ASOS | 54 | 26 | 35 | 29.86 | 18 | WNW | |||
| New York LGA | NY | 2026-05-03 13:45 | ASOS | 54 | 23 | 30 | 29.86 | 23 | WNW | |||
| New York LGA | NY | 2026-05-03 08:25 | ASOS | 46 | 28 | 49 | 29.88 | 10 | NW | |||
| New York LGA | NY | 2026-05-03 19:35 | ASOS | 59 | 26 | 29 | 29.84 | 13 | WNW | |||
| New York LGA | NY | 2026-05-03 17:35 | ASOS | 61 | 21 | 22 | 29.83 | 18 | NW | |||
| New York LGA | NY | 2026-05-03 17:45 | ASOS | 61 | 23 | 23 | 29.83 | 16 | NW | |||
| New York LGA | NY | 2026-05-03 17:51 | ASOS | 60 | 23 | 24 | 29.83 | 17 | WNW | |||
| New York LGA | NY | 2026-05-03 18:05 | ASOS | 61 | 25 | 25 | 29.83 | 15 | NW | |||
| New York LGA | NY | 2026-05-03 18:20 | ASOS | 61 | 25 | 25 | 29.82 | 20 | NW | |||
| New York LGA | NY | 2026-05-03 18:25 | ASOS | 61 | 25 | 25 | 29.83 | 18 | NW | |||
| New York LGA | NY | 2026-05-03 18:35 | ASOS | 61 | 25 | 25 | 29.83 | 14 | WNW | |||
| New York LGA | NY | 2026-05-03 18:51 | ASOS | 60 | 24 | 25 | 29.83 | 14 | WNW | |||
| New York LGA | NY | 2026-05-03 19:15 | ASOS | 61 | 25 | 25 | 29.83 | 18 | WNW | |||
| New York LGA | NY | 2026-05-03 19:20 | ASOS | 61 | 25 | 25 | 29.83 | 15 | NW | |||
| New York LGA | NY | 2026-05-03 19:25 | ASOS | 59 | 26 | 29 | 29.83 | 15 | NW | |||
| New York LGA | NY | 2026-05-03 19:30 | ASOS | 59 | 26 | 29 | 29.83 | 15 | NW | |||
| New York LGA | NY | 2026-05-03 19:40 | ASOS | 61 | 25 | 25 | 29.84 | 10 | WNW | |||
| New York LGA | NY | 2026-05-03 17:20 | ASOS | 59 | 23 | 25 | 29.82 | 23 | WNW | |||
| New York LGA | NY | 2026-05-03 19:51 | ASOS | 59 | 27 | 29 | 29.85 | 10 | WNW | |||
| New York LGA | NY | 2026-05-03 20:20 | ASOS | 61 | 25 | 25 | 29.86 | 9 | WNW | |||
| New York LGA | NY | 2026-05-03 20:25 | ASOS | 59 | 25 | 27 | 29.86 | 9 | WNW | |||
| New York LGA | NY | 2026-05-03 20:30 | ASOS | 61 | 25 | 25 | 29.86 | 9 | WNW | |||
| New York LGA | NY | 2026-05-03 20:51 | ASOS | 59 | 26 | 28 | 29.87 | 7 | W | |||
| New York LGA | NY | 2026-05-03 21:15 | ASOS | 61 | 23 | 23 | 29.88 | 8 | W | |||
| New York LGA | NY | 2026-05-03 21:20 | ASOS | 61 | 23 | 23 | 29.88 | 6 | WSW | |||
| New York LGA | NY | 2026-05-03 21:25 | ASOS | 59 | 23 | 25 | 29.88 | 5 | WSW | |||
| New York LGA | NY | 2026-05-03 21:30 | ASOS | 59 | 25 | 27 | 29.88 | 6 | WSW | |||
| New York LGA | NY | 2026-05-03 21:35 | ASOS | 59 | 23 | 25 | 29.88 | 9 | WSW | |||
| New York LGA | NY | 2026-05-03 21:40 | ASOS | 59 | 23 | 25 | 29.88 | 6 | WSW | |||
| New York LGA | NY | 2026-05-03 21:51 | ASOS | 59 | 23 | 25 | 29.89 | 9 | WSW | |||
| New York LGA | NY | 2026-05-03 22:20 | ASOS | 59 | 25 | 27 | 29.89 | 7 | SW | |||
| New York LGA | NY | 2026-05-03 17:25 | ASOS | 61 | 21 | 22 | 29.83 | 21 | WNW | |||
| New York LGA | NY | 2026-05-03 17:15 | ASOS | 61 | 21 | 22 | 29.82 | 25 | WNW | |||
| New York LGA | NY | 2026-05-03 13:50 | ASOS | 54 | 23 | 30 | 29.86 | 18 | WNW | |||
| New York LGA | NY | 2026-05-03 15:15 | ASOS | 57 | 23 | 26 | 29.84 | 22 | WNW | |||
| New York LGA | NY | 2026-05-03 13:51 | ASOS | 54 | 24 | 31 | 29.86 | 21 | WNW | |||
| New York LGA | NY | 2026-05-03 13:55 | ASOS | 54 | 26 | 35 | 29.86 | 18 | WNW | |||
| New York LGA | NY | 2026-05-03 14:05 | ASOS | 55 | 25 | 30 | 29.86 | 21 | W | |||
| New York LGA | NY | 2026-05-03 14:10 | ASOS | 55 | 25 | 30 | 29.86 | 20 | WNW | |||
| New York LGA | NY | 2026-05-03 14:15 | ASOS | 55 | 26 | 33 | 29.86 | 23 | WNW | |||
| New York LGA | NY | 2026-05-03 14:20 | ASOS | 55 | 25 | 30 | 29.86 | 20 | W | |||
| New York LGA | NY | 2026-05-03 14:25 | ASOS | 55 | 23 | 28 | 29.86 | 21 | WNW | |||
| New York LGA | NY | 2026-05-03 14:30 | ASOS | 55 | 25 | 30 | 29.86 | 20 | W | |||
| New York LGA | NY | 2026-05-03 14:40 | ASOS | 55 | 23 | 28 | 29.85 | 23 | W | |||
| New York LGA | NY | 2026-05-03 14:51 | ASOS | 57 | 23 | 27 | 29.85 | 21 | WNW | |||
| New York LGA | NY | 2026-05-03 15:00 | ASOS | 57 | 25 | 28 | 29.84 | 21 | NW | |||
| New York LGA | NY | 2026-05-03 15:09 | ASOS | 56 | 24 | 29 | 29.84 | 16 | WNW | |||
| New York LGA | NY | 2026-05-03 15:20 | ASOS | 57 | 23 | 26 | 29.84 | 22 | WNW | |||
| New York LGA | NY | 2026-05-03 17:10 | ASOS | 59 | 25 | 27 | 29.82 | 12 | WNW | |||
| New York LGA | NY | 2026-05-03 15:25 | ASOS | 57 | 25 | 28 | 29.84 | 23 | NW | |||
| New York LGA | NY | 2026-05-03 15:30 | ASOS | 57 | 25 | 28 | 29.84 | 22 | W | |||
| New York LGA | NY | 2026-05-03 15:50 | ASOS | 57 | 25 | 28 | 29.83 | 23 | WNW | |||
| New York LGA | NY | 2026-05-03 15:51 | ASOS | 57 | 24 | 28 | 29.83 | 22 | NW | |||
| New York LGA | NY | 2026-05-03 16:10 | ASOS | 57 | 25 | 28 | 29.83 | 20 | WNW | |||
| New York LGA | NY | 2026-05-03 16:15 | ASOS | 57 | 23 | 26 | 29.83 | 22 | WNW | |||
| New York LGA | NY | 2026-05-03 16:25 | ASOS | 57 | 25 | 28 | 29.83 | 23 | NW | |||
| New York LGA | NY | 2026-05-03 16:30 | ASOS | 57 | 25 | 28 | 29.83 | 23 | NW | |||
| New York LGA | NY | 2026-05-03 16:35 | ASOS | 57 | 25 | 28 | 29.82 | 21 | WNW | |||
| New York LGA | NY | 2026-05-03 16:40 | ASOS | 61 | 21 | 22 | 29.82 | 20 | W | |||
| New York LGA | NY | 2026-05-03 16:45 | ASOS | 59 | 21 | 23 | 29.82 | 17 | WNW | |||
| New York LGA | NY | 2026-05-03 16:51 | ASOS | 59 | 24 | 26 | 29.82 | 17 | WNW | |||
| New York LGA | NY | 2026-05-03 17:00 | ASOS | 59 | 23 | 25 | 29.82 | 21 | WNW | |||
| New York LGA | NY | 2026-05-03 08:30 | ASOS | 46 | 28 | 49 | 29.88 | 12 | NW | |||
| New York LGA | NY | 2026-05-03 08:20 | ASOS | 46 | 28 | 49 | 29.88 | 13 | NW | |||
| New York LGA | NY | 2026-05-02 22:40 | ASOS | 55 | 26 | 33 | 29.85 | 8 | N | |||
| New York LGA | NY | 2026-05-03 02:10 | ASOS | 50 | 28 | 43 | 29.84 | 10 | N | |||
| New York LGA | NY | 2026-05-03 01:15 | ASOS | 52 | 28 | 40 | 29.85 | 10 | N | |||
| New York LGA | NY | 2026-05-03 01:20 | ASOS | 52 | 28 | 40 | 29.85 | 12 | N | |||
| New York LGA | NY | 2026-05-03 01:25 | ASOS | 52 | 28 | 40 | 29.84 | 13 | N | |||
| New York LGA | NY | 2026-05-03 01:30 | ASOS | 52 | 28 | 40 | 29.84 | 14 | N | |||
| New York LGA | NY | 2026-05-03 01:35 | ASOS | 52 | 28 | 40 | 29.84 | 12 | N | |||
| New York LGA | NY | 2026-05-03 01:40 | ASOS | 52 | 28 | 40 | 29.84 | 14 | N | |||
| New York LGA | NY | 2026-05-03 01:45 | ASOS | 52 | 28 | 40 | 29.84 | 14 | N | |||
| New York LGA | NY | 2026-05-03 01:50 | ASOS | 50 | 28 | 43 | 29.84 | 13 | N | |||
| New York LGA | NY | 2026-05-03 01:51 | ASOS | 50 | 28 | 42 | 29.84 | 12 | N | |||
| New York LGA | NY | 2026-05-03 01:55 | ASOS | 50 | 28 | 43 | 29.84 | 15 | N | |||
| New York LGA | NY | 2026-05-03 02:00 | ASOS | 50 | 28 | 43 | 29.84 | 15 | N | |||
| New York LGA | NY | 2026-05-03 02:05 | ASOS | 50 | 28 | 43 | 29.84 | 14 | N | |||
| New York LGA | NY | 2026-05-03 02:15 | ASOS | 50 | 28 | 43 | 29.84 | 13 | N | |||
| New York LGA | NY | 2026-05-03 01:00 | ASOS | 52 | 28 | 40 | 29.85 | 15 | N | |||
| New York LGA | NY | 2026-05-03 02:20 | ASOS | 50 | 28 | 43 | 29.83 | 12 | NNE | |||
| New York LGA | NY | 2026-05-03 02:25 | ASOS | 50 | 28 | 43 | 29.83 | 13 | N | |||
| New York LGA | NY | 2026-05-03 02:30 | ASOS | 50 | 28 | 43 | 29.83 | 12 | N | |||
| New York LGA | NY | 2026-05-03 02:35 | ASOS | 50 | 30 | 46 | 29.83 | 12 | N | |||
| New York LGA | NY | 2026-05-03 02:40 | ASOS | 50 | 30 | 46 | 29.83 | 13 | N | |||
| New York LGA | NY | 2026-05-03 02:45 | ASOS | 48 | 30 | 50 | 29.83 | 9 | N | |||
| New York LGA | NY | 2026-05-03 02:50 | ASOS | 48 | 30 | 50 | 29.83 | 9 | N | |||
| New York LGA | NY | 2026-05-03 02:51 | ASOS | 49 | 30 | 48 | 29.83 | 9 | N | |||
| New York LGA | NY | 2026-05-03 02:55 | ASOS | 48 | 30 | 50 | 29.83 | 9 | N | |||
| New York LGA | NY | 2026-05-03 03:00 | ASOS | 48 | 30 | 50 | 29.83 | 10 | N | |||
| New York LGA | NY | 2026-05-03 03:05 | ASOS | 48 | 30 | 50 | 29.83 | 12 | NNW | |||
| New York LGA | NY | 2026-05-03 03:10 | ASOS | 48 | 30 | 50 | 29.83 | 10 | NNW | |||
| New York LGA | NY | 2026-05-03 03:15 | ASOS | 48 | 30 | 50 | 29.83 | 13 | NNW | |||
| New York LGA | NY | 2026-05-03 01:05 | ASOS | 52 | 28 | 40 | 29.85 | 12 | N | |||
| New York LGA | NY | 2026-05-03 00:51 | ASOS | 52 | 28 | 39 | 29.85 | 10 | N | |||
| New York LGA | NY | 2026-05-03 03:25 | ASOS | 48 | 28 | 46 | 29.83 | 15 | N | |||
| New York LGA | NY | 2026-05-02 23:40 | ASOS | 54 | 28 | 38 | 29.85 | 10 | N | |||
| New York LGA | NY | 2026-05-02 22:45 | ASOS | 55 | 26 | 33 | 29.85 | 7 | N | |||
| New York LGA | NY | 2026-05-02 22:50 | ASOS | 55 | 28 | 35 | 29.85 | 9 | N | |||
| New York LGA | NY | 2026-05-02 22:51 | ASOS | 55 | 27 | 34 | 29.85 | 10 | N | |||
| New York LGA | NY | 2026-05-02 22:55 | ASOS | 55 | 26 | 33 | 29.85 | 9 | NNW | |||
| New York LGA | NY | 2026-05-02 23:00 | ASOS | 55 | 26 | 33 | 29.85 | 12 | N | |||
| New York LGA | NY | 2026-05-02 23:05 | ASOS | 55 | 26 | 33 | 29.85 | 12 | NNW | |||
| New York LGA | NY | 2026-05-02 23:10 | ASOS | 55 | 26 | 33 | 29.85 | 12 | NNW | |||
| New York LGA | NY | 2026-05-02 23:15 | ASOS | 54 | 28 | 38 | 29.85 | 8 | N | |||
| New York LGA | NY | 2026-05-02 23:20 | ASOS | 54 | 28 | 38 | 29.85 | 8 | N | |||
| New York LGA | NY | 2026-05-02 23:25 | ASOS | 54 | 28 | 38 | 29.85 | 10 | N | |||
| New York LGA | NY | 2026-05-02 23:30 | ASOS | 54 | 30 | 41 | 29.85 | 9 | N | |||
| New York LGA | NY | 2026-05-02 23:35 | ASOS | 54 | 28 | 38 | 29.85 | 8 | NNW | |||
| New York LGA | NY | 2026-05-02 23:45 | ASOS | 54 | 26 | 35 | 29.85 | 13 | NNW | |||
| New York LGA | NY | 2026-05-03 00:50 | ASOS | 52 | 28 | 40 | 29.85 | 10 | N | |||
| New York LGA | NY | 2026-05-02 23:50 | ASOS | 54 | 26 | 35 | 29.85 | 13 | NNW | |||
| New York LGA | NY | 2026-05-02 23:51 | ASOS | 54 | 27 | 35 | 29.85 | 13 | N | |||
| New York LGA | NY | 2026-05-02 23:55 | ASOS | 54 | 26 | 35 | 29.85 | 10 | N | |||
| New York LGA | NY | 2026-05-03 00:00 | ASOS | 54 | 28 | 38 | 29.86 | 8 | N | |||
| New York LGA | NY | 2026-05-03 00:05 | ASOS | 54 | 28 | 38 | 29.86 | 8 | N | |||
| New York LGA | NY | 2026-05-03 00:10 | ASOS | 54 | 28 | 38 | 29.85 | 10 | NNE | |||
| New York LGA | NY | 2026-05-03 00:15 | ASOS | 54 | 28 | 38 | 29.85 | 17 | NNE | |||
| New York LGA | NY | 2026-05-03 00:20 | ASOS | 54 | 28 | 38 | 29.85 | 12 | NNE | |||
| New York LGA | NY | 2026-05-03 00:25 | ASOS | 54 | 28 | 38 | 29.85 | 12 | N | |||
| New York LGA | NY | 2026-05-03 00:30 | ASOS | 54 | 28 | 38 | 29.85 | 14 | N | |||
| New York LGA | NY | 2026-05-03 00:35 | ASOS | 52 | 28 | 40 | 29.85 | 15 | N | |||
| New York LGA | NY | 2026-05-03 00:40 | ASOS | 52 | 26 | 37 | 29.85 | 12 | N | |||
| New York LGA | NY | 2026-05-03 00:45 | ASOS | 52 | 28 | 40 | 29.85 | 10 | N | |||
| New York LGA | NY | 2026-05-03 03:20 | ASOS | 48 | 28 | 46 | 29.83 | 15 | N | |||
| New York LGA | NY | 2026-05-03 03:30 | ASOS | 48 | 30 | 50 | 29.83 | 13 | N | |||
| New York LGA | NY | 2026-05-03 08:15 | ASOS | 46 | 28 | 49 | 29.88 | 16 | NW | |||
| New York LGA | NY | 2026-05-03 07:05 | ASOS | 46 | 28 | 49 | 29.87 | 16 | NW | |||
| New York LGA | NY | 2026-05-03 06:05 | ASOS | 46 | 28 | 49 | 29.84 | 16 | NW | |||
| New York LGA | NY | 2026-05-03 06:10 | ASOS | 46 | 28 | 49 | 29.84 | 14 | NW | |||
| New York LGA | NY | 2026-05-03 06:20 | ASOS | 46 | 28 | 49 | 29.85 | 17 | NW | |||
| New York LGA | NY | 2026-05-03 06:25 | ASOS | 46 | 28 | 49 | 29.85 | 17 | NW | |||
| New York LGA | NY | 2026-05-03 06:30 | ASOS | 46 | 28 | 49 | 29.85 | 14 | NW | |||
| New York LGA | NY | 2026-05-03 06:35 | ASOS | 46 | 30 | 53 | 29.86 | 13 | NW | |||
| New York LGA | NY | 2026-05-03 06:40 | ASOS | 46 | 28 | 49 | 29.86 | 17 | NW | |||
| New York LGA | NY | 2026-05-03 06:45 | ASOS | 46 | 28 | 49 | 29.86 | 18 | NW | |||
| New York LGA | NY | 2026-05-03 06:50 | ASOS | 46 | 28 | 49 | 29.86 | 17 | NW | |||
| New York LGA | NY | 2026-05-03 06:51 | ASOS | 46 | 29 | 51 | 29.86 | 17 | NW | |||
| New York LGA | NY | 2026-05-03 06:55 | ASOS | 46 | 28 | 49 | 29.87 | 16 | NW | |||
| New York LGA | NY | 2026-05-03 07:00 | ASOS | 46 | 28 | 49 | 29.87 | 16 | NW | |||
| New York LGA | NY | 2026-05-03 07:10 | ASOS | 46 | 28 | 49 | 29.87 | 18 | NW | |||
| New York LGA | NY | 2026-05-03 05:55 | ASOS | 46 | 30 | 53 | 29.83 | 14 | NW | |||
| New York LGA | NY | 2026-05-03 07:15 | ASOS | 46 | 28 | 49 | 29.87 | 15 | NW | |||
| New York LGA | NY | 2026-05-03 07:20 | ASOS | 46 | 28 | 49 | 29.88 | 13 | NW | |||
| New York LGA | NY | 2026-05-03 07:25 | ASOS | 46 | 28 | 49 | 29.88 | 16 | NW | |||
| New York LGA | NY | 2026-05-03 07:30 | ASOS | 46 | 28 | 49 | 29.88 | 15 | NNW | |||
| New York LGA | NY | 2026-05-03 07:35 | ASOS | 46 | 28 | 49 | 29.88 | 13 | NW | |||
| New York LGA | NY | 2026-05-03 07:40 | ASOS | 46 | 28 | 49 | 29.88 | 18 | NW | |||
| New York LGA | NY | 2026-05-03 07:45 | ASOS | 46 | 28 | 49 | 29.88 | 18 | NNW | |||
| New York LGA | NY | 2026-05-03 07:50 | ASOS | 46 | 28 | 49 | 29.88 | 17 | NW | |||
| New York LGA | NY | 2026-05-03 07:51 | ASOS | 46 | 29 | 51 | 29.88 | 20 | NW | |||
| New York LGA | NY | 2026-05-03 07:55 | ASOS | 46 | 28 | 49 | 29.88 | 16 | NW | |||
| New York LGA | NY | 2026-05-03 08:00 | ASOS | 46 | 28 | 49 | 29.88 | 14 | NNW | |||
| New York LGA | NY | 2026-05-03 08:05 | ASOS | 46 | 28 | 49 | 29.88 | 14 | NW | |||
| New York LGA | NY | 2026-05-03 08:10 | ASOS | 46 | 28 | 49 | 29.88 | 16 | NW | |||
| New York LGA | NY | 2026-05-03 06:00 | ASOS | 46 | 30 | 53 | 29.84 | 15 | NW | |||
| New York LGA | NY | 2026-05-03 05:51 | ASOS | 47 | 29 | 49 | 29.83 | 12 | NW | |||
| New York LGA | NY | 2026-05-03 03:35 | ASOS | 48 | 30 | 50 | 29.83 | 12 | NNW | |||
| New York LGA | NY | 2026-05-03 04:40 | ASOS | 46 | 28 | 49 | 29.83 | 12 | N | |||
| New York LGA | NY | 2026-05-03 03:40 | ASOS | 48 | 28 | 46 | 29.83 | 13 | N | |||
| New York LGA | NY | 2026-05-03 03:45 | ASOS | 48 | 28 | 46 | 29.83 | 12 | N | |||
| New York LGA | NY | 2026-05-03 03:50 | ASOS | 48 | 28 | 46 | 29.83 | 12 | N | |||
| New York LGA | NY | 2026-05-03 03:51 | ASOS | 48 | 29 | 47 | 29.83 | 12 | N | |||
| New York LGA | NY | 2026-05-03 04:00 | ASOS | 48 | 30 | 50 | 29.83 | 9 | N | |||
| New York LGA | NY | 2026-05-03 04:05 | ASOS | 48 | 30 | 50 | 29.83 | 15 | NNW | |||
| New York LGA | NY | 2026-05-03 04:10 | ASOS | 48 | 28 | 46 | 29.83 | 12 | N | |||
| New York LGA | NY | 2026-05-03 04:15 | ASOS | 48 | 30 | 50 | 29.83 | 12 | NNW | |||
| New York LGA | NY | 2026-05-03 04:20 | ASOS | 48 | 30 | 50 | 29.83 | 12 | N | |||
| New York LGA | NY | 2026-05-03 04:25 | ASOS | 48 | 28 | 46 | 29.83 | 10 | NNW | |||
| New York LGA | NY | 2026-05-03 04:30 | ASOS | 48 | 28 | 46 | 29.83 | 12 | NNW | |||
| New York LGA | NY | 2026-05-03 04:35 | ASOS | 46 | 28 | 49 | 29.83 | 12 | NNW | |||
| New York LGA | NY | 2026-05-03 04:45 | ASOS | 46 | 30 | 53 | 29.83 | 12 | NNW | |||
| New York LGA | NY | 2026-05-03 05:50 | ASOS | 46 | 28 | 49 | 29.83 | 12 | NNW | |||
| New York LGA | NY | 2026-05-03 04:50 | ASOS | 46 | 30 | 53 | 29.83 | 13 | NNW | |||
| New York LGA | NY | 2026-05-03 04:51 | ASOS | 47 | 30 | 52 | 29.83 | 14 | NNW | |||
| New York LGA | NY | 2026-05-03 04:55 | ASOS | 46 | 28 | 49 | 29.83 | 13 | NNW | |||
| New York LGA | NY | 2026-05-03 05:00 | ASOS | 46 | 28 | 49 | 29.83 | 14 | N | |||
| New York LGA | NY | 2026-05-03 05:05 | ASOS | 46 | 28 | 49 | 29.83 | 14 | N | |||
| New York LGA | NY | 2026-05-03 05:10 | ASOS | 46 | 28 | 49 | 29.83 | 16 | NNW | |||
| New York LGA | NY | 2026-05-03 05:15 | ASOS | 46 | 28 | 49 | 29.83 | 10 | NNW | |||
| New York LGA | NY | 2026-05-03 05:20 | ASOS | 46 | 28 | 49 | 29.83 | 12 | N | |||
| New York LGA | NY | 2026-05-03 05:25 | ASOS | 46 | 28 | 49 | 29.83 | 14 | NNW | |||
| New York LGA | NY | 2026-05-03 05:30 | ASOS | 46 | 28 | 49 | 29.83 | 14 | NNW | |||
| New York LGA | NY | 2026-05-03 05:35 | ASOS | 46 | 28 | 49 | 29.83 | 14 | NNW | |||
| New York LGA | NY | 2026-05-03 05:40 | ASOS | 46 | 28 | 49 | 29.83 | 13 | NNW | |||
| New York LGA | NY | 2026-05-03 05:45 | ASOS | 46 | 28 | 49 | 29.83 | 13 | NNW | |||
| New York LGA | NY | 2026-05-03 22:25 | ASOS | 59 | 25 | 27 | 29.89 | 6 | SSW |
data collection created in 0.035083055496216 (queried in 0.006791) rendered in: 0.00038886070251465

